航空気象通報

ウインドサーファーのための航空気象通報による風予報です。

1/2-1/4の航空気象通報

2019年01月03日 00時36分20秒 | お天気
羽田空港
TAF RJTT 021105Z 0212/0318 35011KT 9999 FEW030 SCT060
日本時間2日21時-4日03時:350度から11ノットの風


静岡空港
TAF RJNS 021105Z 0212/0318 27014KT 9999 FEW030
日本時間2日21時-4日03時:270度から14ノットの風


福岡空港
TAF RJFF 021105Z 0212/0318 14004KT 9999 FEW040
BECMG 0300/0303 33008KT
BECMG 0309/0312 14005KT
日本時間2日21時-3日09時:140度から4ノットの風
09-12時:風が変化
12-18時:330度から8ノットの風
18-21時:風が変化
21時-4日03時:140度から5ノットの風


那覇空港
TAF ROAH 021107Z 0212/0318 04009KT 9999 FEW020 BKN045
日本時間2日21時-4日03時:040度から9ノットの風


石垣空港
TAF ROIG 021108Z 0212/0318 05020KT 9999 FEW008 BKN020
TEMPO 0212/0218 4000 SHRA FEW005 BKN008 BKN015
TEMPO 0221/0300 4000 SHRA FEW005 BKN008 BKN015
日本時間2日21時-4日03時:050度から20ノットの風

但し、2日21時-3日03時の間:時々
但し、3日06-09時の間:時々

マウイのカフルイ空港
PHOG 021120Z 0212/0312 07012G18KT P6SM FEW030 SCT050
FM021900 06020G30KT P6SM FEW030 SCT050
FM030500 07012G20KT P6SM FEW030 SCT050 AMD LTD TO VIS AND WIND TIL 021600
ハワイ時間2日02-09時:070度から12ノット、突風18ノット
09-19時:060度から20ノット、突風30ノット
19時-3日02時:070度から12ノット、突風20ノット


サイパン空港
PGSN 021121Z 0212/0312 07018G27KT P6SM VCSH SCT020 SCT035
マリアナ時間2日22時-3日22時:070度から18ノット、突風27ノット
ジャンル:
お天気
コメント   この記事についてブログを書く
« 12/31-1/2の航空気象通報 | トップ | 1/3-1/5の航空気象通報 »
最近の画像もっと見る

コメントを投稿

ブログ作成者から承認されるまでコメントは反映されません。

お天気」カテゴリの最新記事